Terminal Aerodrome Forecast
Issued by NWS

Home | Current Version | Previous Version | Text Only | Print | Product List | Glossary On
Versions: 1 2 3 4 5 6 7 8 9 10 11 12 13 14 15 16 17 18 19 20 21 22
000
FTUS43 KDTX 100747 AAB
TAFYIP
TAF AMD
KYIP 100747Z 1008/1106 25010KT 6SM -SHSN BKN030 OVC050
      TEMPO 1008/1009 2SM -SHSN BKN025
     FM100900 25009KT 6SM -SHSN SCT025 OVC050
      TEMPO 1012/1016 2SM -SHSN BKN015 OVC025
     FM101600 23011KT P6SM -SHSN BKN025 BKN040
     FM110000 23009KT P6SM BKN035 OVC120=

USA.gov is the U.S. government's official web portal to all federal, state and local government web resources and services.